Impacts METAR Board
IDs:

KMDW - Chicago/Midway Intl, IL, US

Updated at: 1200 UTC 19 Jun 2018
Potential Impact None Slight Moderate High
Time 19/00Z 19/01Z 19/02Z 19/03Z 19/04Z 19/05Z 19/06Z 19/07Z 19/08Z 19/09Z 19/10Z 19/11Z 19/12Z
Temp83 78 76 76 76 69 69 68 67 67 67 67 67
Dewpt69 71 71 70 71 65 66 66 65 65 66 65 65
Altim29.93 29.97 29.97 29.96 29.98 30.02 30.02 30.00 29.96 29.98 29.97 29.99 29.98
VIS10 10 10 10 10 10 8 10 10 7 10 8 4
CIG55 50 120 250 200 7 9 11 17 17 160 6 6
CoverBKNOVCBKNBKNBKNOVCOVCOVCOVCOVCBKNOVCOVC
FltCatVFRVFRVFRVFRVFRIFRIFRMVFRMVFRMVFRVFRIFRIFR
WX---RA---------TSRA-----TSRA----BR
WDir3603203003103406070304020302010
WSpd12 15 7 6 7 10 7 6 7 4 4 5 4
WGst-- 21 -- -- -- -- -- -- -- -- -- -- --
Raw hourly METARs
KMDW 182353Z 36012KT 10SM BKN055 BKN070 BKN250 28/21 A2993 RMK AO2 SLP124 T02830206 10350 20278 53017
KMDW 190053Z 32015G21KT 10SM -RA FEW005 BKN050 BKN075 OVC250 26/22 A2997 RMK AO2 LTG DSNT N RAB37E46B51 SLP137 P0000 T02560217
KMDW 190153Z 30007KT 10SM SCT055 BKN120 BKN160 BKN250 24/22 A2997 RMK AO2 RAE13 SLP137 P0000 T02440217
KMDW 190253Z 31006KT 10SM FEW065 SCT120 SCT160 BKN250 24/21 A2996 RMK AO2 RAB13E26 SLP135 FRQ LTGIC DSNT S AND W-NW CB DSNT S AND W-NW P0000 60000 T02440211 50010
KMDW 190353Z 34007KT 10SM SCT013 SCT150 BKN200 24/22 A2998 RMK AO2 SLP141 FRQ LTGIC DSNT S AND W CB DSNT S AND W T02440217
KMDW 190453Z 06010KT 10SM OVC007 21/18 A3002 RMK AO2 LTG DSNT SW-NW SLP154 T02060183
KMDW 190553Z 07007KT 8SM -TSRA OVC009CB 21/19 A3002 RMK AO2 LTG DSNT SW AND W RAB25 TSB35 SLP153 OCNL LTGIC VC S-W TS VC S-W MOV E P0001 60001 T02060189 10283 20200 403500200 50017
KMDW 190653Z 03006KT 10SM BKN011 OVC015 20/19 A3000 RMK AO2 LTG DSNT W RAE17 TSE21 SLP146 P0000 T02000189
KMDW 190753Z 04007KT 10SM FEW011 BKN017 BKN080 OVC150 19/18 A2996 RMK AO2 LTG DSNT W SLP134 FRQ LTGIC DSNT W CB DSNT W T01940183
KMDW 190853Z 02004KT 7SM -TSRA FEW008 BKN017CB OVC050 19/18 A2998 RMK AO2 RAB01 TSE11B32 SLP140 VIS W 3 FRQ LTGICCG VC W TS VC W MOV E P0004 60004 T01940183 55005
KMDW 190953Z 03004KT 10SM FEW006 SCT065 SCT080 BKN160 19/19 A2997 RMK AO2 RAE52 TSE31 SLP136 P0003 T01940189
KMDW 191053Z 02005KT 8SM OVC006 19/18 A2999 RMK AO2 SLP144 T01940183
KMDW 191153Z 01004KT 4SM BR OVC006 19/18 A2998 RMK AO2 SLP145 60007 70008 T01940183 10206 20189 53001



Page loaded:  12:33 UTC  |   05:33 AM Pacific  |   06:33 AM Mountain  |   07:33 AM Central  |   08:33 AM Eastern

 

ADVISORIES

FORECASTS

FORECASTS

OBSERVATIONS

USER TOOLS

ABOUT US